Time;durP1;ratioP1;P1;durP2;ratioP2;P2;SDS_P1;SDS_P2;PMS_P1;PMS_P2;Temp;Humidity;BMP_temperature;BMP_pressure;BME280_temperature;BME280_humidity;BME280_pressure;Samples;Min_cycle;Max_cycle;Signal;HPM_P1;HPM_P2
2023/04/16 00:02:20;;;;;;;;;3.00;3.00;;;;;21.45;37.97;101873.06;5019185;28;45401;-43
2023/04/16 00:04:46;;;;;;;;;4.00;3.00;;;;;21.49;37.18;101871.16;5019169;28;45620;-40
2023/04/16 00:07:11;;;;;;;;;3.25;3.25;;;;;21.54;36.96;101877.09;5018691;28;56110;-40
2023/04/16 00:09:37;;;;;;;;;5.25;3.50;;;;;21.56;36.90;101873.44;5018897;28;45385;-43
2023/04/16 00:12:03;;;;;;;;;2.00;2.00;;;;;21.58;36.73;101876.88;5019092;28;45224;-37
2023/04/16 00:14:29;;;;;;;;;3.00;3.00;;;;;21.61;37.10;101883.81;5019210;28;45224;-45
2023/04/16 00:16:54;;;;;;;;;2.00;2.00;;;;;21.62;36.85;101881.16;5018760;28;45724;-44
2023/04/16 00:19:19;;;;;;;;;3.50;3.25;;;;;21.64;37.02;101880.22;5017440;28;45891;-39
2023/04/16 00:21:45;;;;;;;;;4.00;3.75;;;;;21.66;36.85;101883.66;5018738;28;45343;-39
2023/04/16 00:24:10;;;;;;;;;2.00;1.25;;;;;21.66;37.15;101886.28;5019154;28;45668;-38
2023/04/16 00:26:35;;;;;;;;;3.00;3.00;;;;;21.68;36.69;101885.28;5018661;28;46648;-38
2023/04/16 00:29:01;;;;;;;;;3.25;3.00;;;;;21.68;36.63;101884.41;5018921;28;45339;-38
2023/04/16 00:31:27;;;;;;;;;2.75;2.50;;;;;21.67;36.55;101882.69;5018659;28;45388;-43
2023/04/16 00:33:53;;;;;;;;;3.00;3.00;;;;;21.67;36.71;101888.84;5018777;28;45269;-38
2023/04/16 00:36:18;;;;;;;;;3.00;3.00;;;;;21.68;36.76;101884.41;5018310;28;45471;-41
2023/04/16 00:38:43;;;;;;;;;2.67;2.67;;;;;21.67;36.46;101885.34;5017303;28;64163;-41
2023/04/16 00:41:09;;;;;;;;;2.00;2.00;;;;;21.66;36.69;101881.88;5018550;28;45237;-44
2023/04/16 00:43:34;;;;;;;;;3.50;2.50;;;;;21.67;36.55;101887.97;5018653;28;45578;-37
2023/04/16 00:46:00;;;;;;;;;2.00;2.00;;;;;21.66;36.70;101881.03;5018469;28;46494;-39
2023/04/16 00:48:26;;;;;;;;;3.00;3.00;;;;;21.65;36.98;101882.78;5026485;28;45534;-38
2023/04/16 00:50:54;;;;;;;;;4.00;4.00;;;;;21.65;36.50;101885.41;5038379;28;45228;-37
2023/04/16 00:53:19;;;;;;;;;3.00;3.00;;;;;21.64;36.45;101877.59;5038482;28;45500;-37
2023/04/16 00:55:44;;;;;;;;;2.25;2.25;;;;;21.62;36.40;101870.59;5038280;28;45330;-37
2023/04/16 00:58:10;;;;;;;;;3.25;2.50;;;;;21.60;36.62;101876.88;5038061;28;45286;-38
2023/04/16 01:00:35;;;;;;;;;3.00;3.00;;;;;21.59;36.46;101875.16;5038220;28;45457;-38
2023/04/16 01:03:01;;;;;;;;;2.00;2.00;;;;;21.59;36.46;101873.34;5037957;28;54082;-37
2023/04/16 01:05:26;;;;;;;;;3.25;2.00;;;;;21.58;36.34;101876.88;5037920;28;46654;-40
2023/04/16 01:07:51;;;;;;;;;2.50;2.50;;;;;21.57;36.51;101869.03;5037998;28;45406;-37
2023/04/16 01:10:17;;;;;;;;;2.25;2.25;;;;;21.55;36.49;101871.72;5038032;28;45421;-40
2023/04/16 01:12:42;;;;;;;;;3.00;2.00;;;;;21.56;36.17;101878.72;5037677;28;46661;-40
2023/04/16 01:15:08;;;;;;;;;1.75;1.75;;;;;21.54;36.28;101882.34;5037942;28;45288;-39
2023/04/16 01:17:33;;;;;;;;;1.25;1.25;;;;;21.52;36.17;101878.91;5036732;28;45398;-44
2023/04/16 01:19:59;;;;;;;;;2.50;1.75;;;;;21.51;36.44;101874.56;5037955;28;45425;-39
2023/04/16 01:22:25;;;;;;;;;3.50;3.00;;;;;21.49;36.06;101873.81;5037835;28;45807;-37
2023/04/16 01:24:50;;;;;;;;;2.00;2.00;;;;;21.48;36.04;101872.94;5037568;28;46361;-41
2023/04/16 01:27:15;;;;;;;;;2.00;2.00;;;;;21.46;35.77;101880.03;5037667;28;46369;-38
2023/04/16 01:29:41;;;;;;;;;2.00;2.00;;;;;21.45;36.34;101873.06;5037162;28;59268;-41
2023/04/16 01:32:06;;;;;;;;;2.00;2.00;;;;;21.44;35.83;101874.84;5037489;28;51750;-39
2023/04/16 01:34:31;;;;;;;;;3.25;2.25;;;;;21.42;36.42;101867.94;5037358;28;46951;-39
2023/04/16 01:36:57;;;;;;;;;3.00;2.00;;;;;21.41;35.96;101872.34;5036960;28;61185;-40
2023/04/16 01:39:22;;;;;;;;;2.00;2.00;;;;;21.40;36.04;101869.78;5037492;28;45337;-37
2023/04/16 01:41:47;;;;;;;;;1.50;1.00;;;;;21.39;35.86;101873.31;5036389;28;45418;-42
2023/04/16 01:44:13;;;;;;;;;3.00;3.00;;;;;21.38;35.81;101871.59;5035782;28;50057;-41
2023/04/16 01:46:38;;;;;;;;;1.00;1.00;;;;;21.37;36.26;101881.31;5036860;28;57053;-39
2023/04/16 01:49:05;;;;;;;;;3.25;3.25;;;;;21.34;35.72;101880.56;5036737;28;45224;-37
2023/04/16 01:51:31;;;;;;;;;3.50;2.00;;;;;21.32;36.08;101875.38;5036351;28;45517;-39
2023/04/16 01:53:57;;;;;;;;;2.00;2.00;;;;;21.32;35.92;101888.56;5037118;28;45349;-37
2023/04/16 01:56:22;;;;;;;;;3.25;2.50;;;;;21.30;36.06;101893.91;5037011;28;45407;-36
2023/04/16 01:58:47;;;;;;;;;2.50;2.50;;;;;21.28;36.05;101887.81;5037324;28;45326;-36
2023/04/16 02:01:13;;;;;;;;;2.25;2.00;;;;;21.26;35.77;101889.66;5037195;28;45538;-36
2023/04/16 02:03:39;;;;;;;;;1.25;1.25;;;;;21.26;35.89;101894.09;5037249;28;45696;-42
2023/04/16 02:06:05;;;;;;;;;2.00;2.00;;;;;21.23;36.05;101888.94;5037256;28;45381;-41
2023/04/16 02:08:30;;;;;;;;;2.25;2.25;;;;;21.21;36.23;101891.66;5035691;28;45687;-38
2023/04/16 02:10:56;;;;;;;;;2.00;2.00;;;;;21.20;36.27;101894.34;5037327;28;45517;-36
2023/04/16 02:13:22;;;;;;;;;4.00;3.00;;;;;21.20;35.95;101899.59;5036902;28;45547;-36
2023/04/16 02:15:51;;;;;;;;;3.25;2.25;;;;;21.19;36.27;101892.59;5036758;28;45375;-39
2023/04/16 02:18:16;;;;;;;;;2.50;2.00;;;;;21.19;36.07;101903.16;5037172;28;45391;-36
2023/04/16 02:20:43;;;;;;;;;1.00;1.00;;;;;21.16;36.13;101904.16;5037282;28;45463;-36
2023/04/16 02:23:09;;;;;;;;;4.75;2.00;;;;;21.16;36.14;101898.88;5036964;28;45745;-37
2023/04/16 02:25:40;;;;;;;;;3.50;3.50;;;;;21.16;36.10;101901.50;5036829;28;45397;-37
2023/04/16 02:28:08;;;;;;;;;4.75;3.00;;;;;21.14;36.27;101903.34;5037146;28;45259;-38
2023/04/16 02:30:38;;;;;;;;;2.00;2.00;;;;;21.13;35.92;101899.00;5035951;28;45444;-38
2023/04/16 02:33:06;;;;;;;;;2.75;2.00;;;;;21.12;35.75;101905.19;5035271;28;47219;-38
2023/04/16 02:35:32;;;;;;;;;3.75;3.75;;;;;21.11;36.02;101898.22;5036708;28;45983;-41
2023/04/16 02:37:57;;;;;;;;;2.75;2.00;;;;;21.09;36.22;101898.25;5036752;28;45390;-39
2023/04/16 02:40:23;;;;;;;;;2.00;2.00;;;;;21.07;35.84;101902.75;5036895;28;45653;-39
2023/04/16 02:42:48;;;;;;;;;3.00;3.00;;;;;21.07;35.78;101899.25;5036430;28;46321;-39
2023/04/16 02:45:13;;;;;;;;;1.00;1.00;;;;;21.05;36.05;101901.97;5036539;28;45367;-37
2023/04/16 02:47:39;;;;;;;;;3.50;2.75;;;;;21.04;36.27;101896.75;5036854;28;45613;-41
2023/04/16 02:50:05;;;;;;;;;2.25;2.00;;;;;21.02;35.77;101902.09;5036834;28;45480;-43
2023/04/16 02:52:31;;;;;;;;;2.00;2.00;;;;;21.00;35.81;101893.38;5036363;28;45497;-40
2023/04/16 02:54:56;;;;;;;;;4.00;3.00;;;;;20.99;36.17;101902.19;5036493;28;45757;-37
2023/04/16 02:57:22;;;;;;;;;2.75;2.75;;;;;20.98;35.82;101904.00;5036136;28;45258;-38
2023/04/16 02:59:47;;;;;;;;;3.00;2.25;;;;;20.94;35.81;101898.91;5035797;28;51939;-39
2023/04/16 03:02:12;;;;;;;;;4.33;2.67;;;;;20.96;36.13;101900.56;5035935;28;55687;-39
2023/04/16 03:04:38;;;;;;;;;2.00;2.00;;;;;20.95;36.04;101897.97;5036501;28;45303;-38
2023/04/16 03:07:03;;;;;;;;;3.00;3.00;;;;;20.91;36.22;101899.88;5034902;28;45403;-39
2023/04/16 03:09:28;;;;;;;;;4.00;2.00;;;;;20.92;36.27;101901.59;5036378;28;45566;-45
2023/04/16 03:11:53;;;;;;;;;3.00;2.00;;;;;20.89;36.13;101893.78;5035929;28;47290;-41
2023/04/16 03:14:19;;;;;;;;;3.00;2.00;;;;;20.90;36.50;101898.16;5035911;28;45271;-42
2023/04/16 03:16:44;;;;;;;;;3.00;3.00;;;;;20.91;35.99;101905.13;5035472;28;45447;-42
2023/04/16 03:19:10;;;;;;;;;2.00;2.00;;;;;20.90;36.24;101900.78;5036705;28;45538;-40
2023/04/16 03:21:35;;;;;;;;;2.50;2.50;;;;;20.89;36.18;101900.84;5035624;28;52451;-44
2023/04/16 03:24:00;;;;;;;;;1.00;1.00;;;;;20.89;36.27;101904.34;5036027;28;45370;-37
2023/04/16 03:26:26;;;;;;;;;3.00;3.00;;;;;20.88;36.16;101900.00;5036003;28;45376;-40
2023/04/16 03:28:51;;;;;;;;;3.00;3.00;;;;;20.88;35.99;101912.31;5035985;28;45334;-40
2023/04/16 03:31:16;;;;;;;;;2.25;2.00;;;;;20.86;36.56;101904.47;5035919;28;46286;-38
2023/04/16 03:33:41;;;;;;;;;4.00;2.00;;;;;20.85;35.74;101905.41;5036169;28;45420;-38
2023/04/16 03:36:07;;;;;;;;;2.00;2.00;;;;;20.84;36.21;101906.31;5034854;28;45323;-39
2023/04/16 03:38:32;;;;;;;;;3.00;3.00;;;;;20.83;36.32;101907.22;5036163;28;45553;-37
2023/04/16 03:40:58;;;;;;;;;4.00;2.67;;;;;20.82;36.24;101908.16;5035198;28;66901;-36
2023/04/16 03:43:23;;;;;;;;;3.00;2.75;;;;;20.81;36.23;101906.44;5035582;28;48077;-40
2023/04/16 03:45:48;;;;;;;;;2.50;2.50;;;;;20.82;36.50;101901.13;5035818;28;45411;-39
2023/04/16 03:48:14;;;;;;;;;0.25;0.25;;;;;20.85;36.47;101905.41;5036285;28;45614;-42
2023/04/16 03:50:44;;;;;;;;;2.25;2.25;;;;;20.88;36.75;101893.88;5035830;28;47654;-40
2023/04/16 03:53:09;;;;;;;;;2.00;2.00;;;;;20.93;36.57;101900.66;5035674;28;45693;-37
2023/04/16 03:55:35;;;;;;;;;3.00;3.00;;;;;20.98;36.61;101906.63;5035961;28;45277;-42
2023/04/16 03:58:02;;;;;;;;;2.25;2.25;;;;;21.03;36.81;101898.53;5035890;28;45284;-38
2023/04/16 04:00:28;;;;;;;;;2.00;2.00;;;;;21.11;36.61;101906.97;5035526;28;46470;-42
2023/04/16 04:02:53;;;;;;;;;2.00;2.00;;;;;21.17;36.16;101905.88;5035515;28;45353;-41
2023/04/16 04:05:18;;;;;;;;;3.33;2.00;;;;;21.23;36.32;101905.59;5033657;28;56025;-47
2023/04/16 04:07:44;;;;;;;;;2.00;2.00;;;;;21.29;36.18;101912.41;5034127;28;45581;-40
2023/04/16 04:10:09;;;;;;;;;1.25;1.25;;;;;21.33;36.07;101916.63;5035267;28;45788;-40
2023/04/16 04:12:35;;;;;;;;;1.75;1.75;;;;;21.39;36.22;101919.00;5036691;28;45411;-37
2023/04/16 04:15:00;;;;;;;;;3.00;2.67;;;;;21.44;36.02;101913.56;5038392;28;54797;-38
2023/04/16 04:17:25;;;;;;;;;2.00;2.00;;;;;21.49;36.06;101916.00;5038773;28;45792;-36
2023/04/16 04:19:52;;;;;;;;;2.50;2.00;;;;;21.53;36.13;101918.44;5036670;28;45661;-41
2023/04/16 04:22:18;;;;;;;;;2.00;2.00;;;;;21.58;36.40;101919.09;5035870;28;45556;-41
2023/04/16 04:24:43;;;;;;;;;2.00;2.00;;;;;21.62;36.25;101926.00;5036788;28;45475;-42
2023/04/16 04:27:08;;;;;;;;;2.33;2.00;;;;;21.65;35.83;101922.34;5036468;28;47634;-41
2023/04/16 04:29:34;;;;;;;;;3.75;2.25;;;;;21.68;35.76;101927.50;5036271;28;45483;-40
2023/04/16 04:31:59;;;;;;;;;4.00;2.00;;;;;21.71;36.08;101922.13;5036705;28;45495;-41
2023/04/16 04:34:25;;;;;;;;;2.00;2.00;;;;;21.74;35.52;101921.13;5037713;28;45415;-39
2023/04/16 04:36:50;;;;;;;;;2.00;2.00;;;;;21.77;36.02;101926.28;5038708;28;45352;-36
2023/04/16 04:39:15;;;;;;;;;3.50;2.50;;;;;21.78;35.78;101930.59;5038480;28;54296;-40
2023/04/16 04:41:41;;;;;;;;;1.50;1.25;;;;;21.79;35.89;101929.66;5038186;28;48626;-36
2023/04/16 04:44:06;;;;;;;;;2.00;2.00;;;;;21.80;36.06;101936.66;5038387;28;45457;-37
2023/04/16 04:46:31;;;;;;;;;2.00;2.00;;;;;21.81;35.78;101938.38;5037881;28;55113;-37
2023/04/16 04:48:56;;;;;;;;;2.25;2.00;;;;;21.82;35.63;101933.97;5036971;28;48370;-37
2023/04/16 04:51:22;;;;;;;;;2.75;2.50;;;;;21.83;35.75;101939.19;5038230;28;46767;-36
2023/04/16 04:53:47;;;;;;;;;4.25;3.00;;;;;21.81;35.16;101932.25;5038051;28;51510;-36
2023/04/16 04:56:12;;;;;;;;;3.00;2.00;;;;;21.79;35.30;101940.22;5037515;28;45535;-37
2023/04/16 04:58:38;;;;;;;;;2.67;2.33;;;;;21.78;35.28;101938.50;5035636;28;73218;-36
2023/04/16 05:01:03;;;;;;;;;5.50;3.50;;;;;21.76;35.29;101935.09;5036233;28;45370;-45
2023/04/16 05:03:28;;;;;;;;;2.25;2.25;;;;;21.76;35.41;101940.38;5038096;28;45292;-36
2023/04/16 05:05:53;;;;;;;;;5.50;3.00;;;;;21.78;35.30;101943.78;5036837;28;45415;-44
2023/04/16 05:08:19;;;;;;;;;3.00;3.00;;;;;21.77;35.17;101939.47;5036225;28;45430;-46
2023/04/16 05:10:44;;;;;;;;;3.00;3.00;;;;;21.77;35.30;101939.47;5036049;28;45639;-43
2023/04/16 05:13:10;;;;;;;;;3.50;3.25;;;;;21.76;35.22;101950.94;5036309;28;45426;-39
2023/04/16 05:15:35;;;;;;;;;3.75;3.75;;;;;21.76;35.18;101954.41;5036171;28;45554;-40
2023/04/16 05:18:00;;;;;;;;;3.50;3.50;;;;;21.75;35.29;101951.84;5035998;28;45448;-37
2023/04/16 05:20:26;;;;;;;;;5.00;4.25;;;;;21.74;35.36;101958.91;5051541;28;45426;-36
2023/04/16 05:22:51;;;;;;;;;2.67;2.67;;;;;21.73;35.18;101961.63;5036180;28;62691;-36
2023/04/16 05:25:17;;;;;;;;;5.00;4.00;;;;;21.73;35.21;101964.25;5038265;28;45479;-39
2023/04/16 05:27:42;;;;;;;;;3.75;3.75;;;;;21.72;35.24;101960.75;5037697;28;46366;-38
2023/04/16 05:30:08;;;;;;;;;5.00;3.25;;;;;21.71;35.49;101968.72;5037788;28;45175;-39
2023/04/16 05:32:34;;;;;;;;;6.00;5.00;;;;;21.70;35.40;101967.88;5037687;28;45162;-39
2023/04/16 05:34:59;;;;;;;;;4.75;3.25;;;;;21.69;35.58;101973.22;5037900;28;45628;-37
2023/04/16 05:37:24;;;;;;;;;4.00;4.00;;;;;21.68;35.09;101971.50;5037570;28;47190;-37
2023/04/16 05:39:50;;;;;;;;;4.00;3.75;;;;;21.65;35.25;101969.00;5037791;28;45388;-37
2023/04/16 05:42:15;;;;;;;;;8.75;5.00;;;;;21.65;35.22;101977.75;5037415;28;45479;-36
2023/04/16 05:44:40;;;;;;;;;4.00;2.50;;;;;21.64;35.25;101977.84;5037860;28;45352;-37
2023/04/16 05:47:08;;;;;;;;;4.50;4.50;;;;;21.62;35.28;101981.41;5036041;28;47441;-38
2023/04/16 05:49:33;;;;;;;;;3.75;3.75;;;;;21.60;35.17;101985.88;5036113;28;45607;-37
2023/04/16 05:51:59;;;;;;;;;5.75;4.00;;;;;21.60;35.71;101985.88;5037569;28;45346;-39
2023/04/16 05:54:24;;;;;;;;;4.75;4.00;;;;;21.58;35.42;101990.31;5036157;28;45618;-37
2023/04/16 05:56:49;;;;;;;;;5.00;4.00;;;;;21.56;35.32;101989.50;5036872;28;66268;-38
2023/04/16 05:59:15;;;;;;;;;4.50;3.00;;;;;21.55;35.65;101985.16;5037004;28;50640;-39
2023/04/16 06:01:40;;;;;;;;;3.25;3.25;;;;;21.54;35.53;101994.03;5037434;28;45338;-43
2023/04/16 06:04:05;;;;;;;;;5.00;5.00;;;;;21.52;35.78;101990.59;5037428;28;45554;-45
2023/04/16 06:06:30;;;;;;;;;5.25;4.00;;;;;21.51;35.67;101994.16;5037185;28;45431;-48
2023/04/16 06:08:56;;;;;;;;;3.50;3.50;;;;;21.50;35.33;101996.84;5037097;28;45289;-43
2023/04/16 06:11:21;;;;;;;;;4.00;4.00;;;;;21.49;35.67;101995.97;5019796;28;45367;-46
2023/04/16 06:13:47;;;;;;;;;6.00;5.00;;;;;21.49;35.85;101998.63;5037374;28;45310;-37
2023/04/16 06:16:12;;;;;;;;;6.00;4.00;;;;;21.48;35.50;101999.53;5036721;28;53638;-38
2023/04/16 06:18:37;;;;;;;;;6.00;6.00;;;;;21.46;35.89;101990.81;5036484;28;62791;-43
2023/04/16 06:21:03;;;;;;;;;6.00;4.00;;;;;21.46;35.74;101990.81;5036284;28;59306;-43
2023/04/16 06:23:28;;;;;;;;;3.00;3.00;;;;;21.45;35.43;101995.25;5037108;28;45334;-44
2023/04/16 06:25:54;;;;;;;;;5.00;5.00;;;;;21.47;35.63;101995.19;5035739;28;47308;-39
2023/04/16 06:28:20;;;;;;;;;4.00;4.00;;;;;21.46;35.53;101990.81;5032033;28;45748;-36
2023/04/16 06:30:46;;;;;;;;;4.00;4.00;;;;;21.47;35.85;102003.97;5036702;28;45348;-43
2023/04/16 06:33:11;;;;;;;;;3.00;3.00;;;;;21.46;35.88;102001.38;5036797;28;45445;-43
2023/04/16 06:35:36;;;;;;;;;5.00;5.00;;;;;21.46;35.81;101988.19;5035864;28;46570;-44
2023/04/16 06:38:01;;;;;;;;;4.00;4.00;;;;;21.46;35.64;101996.97;5035374;28;45343;-41
2023/04/16 06:40:27;;;;;;;;;4.67;4.67;;;;;21.46;35.82;101996.09;5036162;28;54276;-40
2023/04/16 06:42:52;;;;;;;;;4.25;4.25;;;;;21.47;36.08;101997.81;5035821;28;45478;-43
2023/04/16 06:45:18;;;;;;;;;2.00;2.00;;;;;21.45;36.14;101995.25;5036448;28;45343;-43
2023/04/16 06:47:43;;;;;;;;;6.25;5.00;;;;;21.46;36.18;101996.97;5036319;28;45459;-40
2023/04/16 06:50:09;;;;;;;;;5.00;5.00;;;;;21.42;35.88;101992.72;5036338;28;45473;-38
2023/04/16 06:52:34;;;;;;;;;4.00;4.00;;;;;21.45;36.22;101999.66;5036708;28;45799;-45
2023/04/16 06:55:00;;;;;;;;;7.00;6.00;;;;;21.45;35.96;101994.38;5020942;28;46161;-41
2023/04/16 06:57:26;;;;;;;;;6.50;5.00;;;;;21.44;36.01;102004.09;5016287;28;45340;-44
2023/04/16 06:59:51;;;;;;;;;5.00;5.00;;;;;21.44;35.58;102009.34;5016897;28;45241;-43
2023/04/16 07:02:16;;;;;;;;;6.00;6.00;;;;;21.41;35.99;102003.34;5014583;28;57934;-47
2023/04/16 07:04:41;;;;;;;;;6.50;5.50;;;;;21.40;35.84;102004.28;5016248;28;46251;-39
2023/04/16 07:07:07;;;;;;;;;5.00;5.00;;;;;21.37;35.92;102007.91;5015866;28;59625;-38
2023/04/16 07:09:33;;;;;;;;;5.25;5.25;;;;;21.36;35.62;102006.19;5016366;28;45320;-38
2023/04/16 07:11:58;;;;;;;;;6.00;5.00;;;;;21.33;35.82;102010.72;5016567;28;45418;-43
2023/04/16 07:14:23;;;;;;;;;5.00;5.00;;;;;21.32;36.06;102015.13;5016358;28;48372;-42
2023/04/16 07:16:49;;;;;;;;;6.75;6.00;;;;;21.29;35.55;102010.84;5016211;28;45335;-36
2023/04/16 07:19:14;;;;;;;;;5.00;5.00;;;;;21.28;35.91;102013.50;5014958;28;45438;-40
2023/04/16 07:21:42;;;;;;;;;6.00;4.00;;;;;21.27;35.76;102010.03;5016205;28;45410;-43
2023/04/16 07:24:08;;;;;;;;;7.00;5.25;;;;;21.27;35.90;102012.66;5015871;28;46095;-40
2023/04/16 07:26:33;;;;;;;;;7.25;5.00;;;;;21.25;35.79;102009.22;5014896;28;45916;-41
2023/04/16 07:28:59;;;;;;;;;10.00;5.67;;;;;21.27;35.70;102012.66;5015343;28;53769;-38
2023/04/16 07:31:24;;;;;;;;;6.25;5.75;;;;;21.26;35.95;102005.69;5016674;28;45525;-36
2023/04/16 07:33:50;;;;;;;;;6.00;4.50;;;;;21.25;36.05;102006.59;5015781;28;46129;-37
2023/04/16 07:36:15;;;;;;;;;5.50;5.25;;;;;21.26;35.85;102010.09;5015939;28;45370;-39
2023/04/16 07:38:40;;;;;;;;;6.00;4.00;;;;;21.23;35.79;102013.69;5016036;28;45329;-39
2023/04/16 07:41:05;;;;;;;;;6.67;6.67;;;;;21.23;35.59;102021.59;5015457;28;58314;-40
2023/04/16 07:43:31;;;;;;;;;5.50;5.50;;;;;21.21;35.69;102012.06;5015659;28;45423;-38
2023/04/16 07:45:57;;;;;;;;;7.75;7.00;;;;;21.16;35.71;102005.22;5016101;28;45845;-37
2023/04/16 07:48:22;;;;;;;;;6.25;6.25;;;;;21.19;35.79;102008.63;5018666;28;47915;-41
2023/04/16 07:50:48;;;;;;;;;6.75;6.75;;;;;21.19;36.02;102016.53;5024786;28;46698;-42
2023/04/16 07:53:14;;;;;;;;;6.00;6.00;;;;;21.18;35.86;102018.31;5035625;28;45541;-38
2023/04/16 07:55:39;;;;;;;;;7.00;7.00;;;;;21.19;35.65;102014.75;5018886;28;45200;-37
2023/04/16 07:58:06;;;;;;;;;7.25;7.00;;;;;21.19;35.60;102013.88;5017715;28;45344;-42
2023/04/16 08:00:32;;;;;;;;;5.50;5.25;;;;;21.17;35.42;102020.06;5018083;28;45578;-43
2023/04/16 08:02:57;;;;;;;;;5.00;5.00;;;;;21.16;36.08;102021.03;5018540;28;46426;-40
2023/04/16 08:05:22;;;;;;;;;6.25;5.50;;;;;21.16;36.01;102033.31;5019203;28;45355;-42
2023/04/16 08:07:48;;;;;;;;;8.50;5.25;;;;;21.17;35.67;102027.13;5031843;28;45476;-41
2023/04/16 08:10:13;;;;;;;;;9.33;5.00;;;;;21.17;35.83;102033.25;5038436;28;55768;-48
2023/04/16 08:12:38;;;;;;;;;5.00;5.00;;;;;21.18;35.76;102028.88;5038282;28;46665;-40
2023/04/16 08:15:05;;;;;;;;;8.50;7.25;;;;;21.17;35.87;102032.41;5038793;28;45327;-42
2023/04/16 08:17:30;;;;;;;;;9.00;8.00;;;;;21.17;35.56;102033.25;5037564;28;45405;-43
2023/04/16 08:19:55;;;;;;;;;8.00;7.00;;;;;21.15;35.93;102032.47;5039388;28;45327;-41
2023/04/16 08:22:21;;;;;;;;;7.00;5.50;;;;;21.15;36.09;102032.47;5038373;28;46735;-44
2023/04/16 08:24:46;;;;;;;;;5.00;5.00;;;;;21.13;35.78;102020.25;5038782;28;45304;-38
2023/04/16 08:27:12;;;;;;;;;8.00;5.00;;;;;21.15;36.02;102027.22;5037668;28;45446;-41
2023/04/16 08:29:37;;;;;;;;;6.00;6.00;;;;;21.14;35.71;102027.25;5038581;28;45430;-42
2023/04/16 08:32:02;;;;;;;;;6.75;4.50;;;;;21.14;35.96;102028.13;5038339;28;49496;-45
2023/04/16 08:34:28;;;;;;;;;6.00;5.00;;;;;21.14;35.94;102037.78;5038750;28;45212;-47
2023/04/16 08:36:53;;;;;;;;;6.00;6.00;;;;;21.14;36.04;102032.53;5038522;28;46908;-37
2023/04/16 08:39:18;;;;;;;;;5.25;5.25;;;;;21.14;36.09;102043.06;5038887;28;46007;-40
2023/04/16 08:41:45;;;;;;;;;6.50;6.50;;;;;21.14;35.88;102037.78;5038432;28;45414;-37
2023/04/16 08:44:20;;;;;;;;;6.50;5.25;;;;;21.14;35.62;102043.06;5038427;28;45826;-36
2023/04/16 08:46:46;;;;;;;;;7.00;5.75;;;;;21.15;35.88;102044.78;5038506;28;45298;-36
2023/04/16 08:49:16;;;;;;;;;6.75;6.00;;;;;21.14;35.95;102043.06;5038541;28;45625;-37
2023/04/16 08:51:48;;;;;;;;;5.00;5.00;;;;;21.15;35.75;102047.44;5038178;28;46239;-37
2023/04/16 08:54:30;;;;;;;;;7.00;6.00;;;;;21.14;35.76;102037.78;5037999;28;45359;-37
2023/04/16 08:56:57;;;;;;;;;7.00;5.25;;;;;21.13;35.84;102042.22;5038764;28;45295;-37
2023/04/16 08:59:24;;;;;;;;;10.00;7.25;;;;;21.13;36.04;102043.97;5037958;28;45378;-44
2023/04/16 09:01:51;;;;;;;;;9.00;6.00;;;;;21.12;35.92;102045.78;5036683;28;46355;-38
2023/04/16 09:04:17;;;;;;;;;7.50;6.25;;;;;21.13;35.64;102041.34;5038138;28;45335;-36
2023/04/16 09:06:44;;;;;;;;;6.75;6.25;;;;;21.12;35.66;102043.13;5038325;28;45252;-37
2023/04/16 09:09:11;;;;;;;;;6.25;6.25;;;;;21.12;35.55;102044.91;5038475;28;45641;-37
2023/04/16 09:11:38;;;;;;;;;4.50;4.50;;;;;21.10;36.00;102047.59;5037956;28;45509;-38
2023/04/16 09:14:06;;;;;;;;;8.00;5.75;;;;;21.10;35.66;102042.34;5037754;28;45453;-39
2023/04/16 09:16:32;;;;;;;;;7.00;6.00;;;;;21.11;35.62;102045.84;5037903;28;45280;-40
2023/04/16 09:18:58;;;;;;;;;5.50;5.00;;;;;21.09;35.59;102045.03;5038521;28;45370;-42
2023/04/16 09:21:24;;;;;;;;;7.00;5.00;;;;;21.09;35.89;102045.03;5037695;28;46538;-43
2023/04/16 09:23:52;;;;;;;;;6.25;6.25;;;;;21.08;35.38;102046.81;5037895;28;45316;-44
2023/04/16 09:26:18;;;;;;;;;9.00;6.00;;;;;21.08;35.73;102038.91;5037915;28;45276;-37
2023/04/16 09:28:49;;;;;;;;;6.75;5.25;;;;;21.09;35.63;102045.03;5037950;28;45402;-39
2023/04/16 09:31:17;;;;;;;;;10.00;7.50;;;;;21.09;35.79;102045.03;5037586;28;45462;-40
2023/04/16 09:33:43;;;;;;;;;6.00;6.00;;;;;21.08;35.58;102053.88;5037569;28;45399;-45
2023/04/16 09:36:09;;;;;;;;;7.25;5.25;;;;;21.09;35.47;102064.34;5037727;28;45505;-38
2023/04/16 09:38:47;;;;;;;;;5.25;5.25;;;;;21.08;35.56;102052.06;5037962;28;45533;-43
2023/04/16 09:41:15;;;;;;;;;5.25;5.25;;;;;21.08;35.84;102053.88;5037603;28;45491;-44
2023/04/16 09:43:47;;;;;;;;;7.00;6.00;;;;;21.08;35.46;102056.50;5035695;28;45268;-45
2023/04/16 09:46:12;;;;;;;;;6.50;6.50;;;;;21.08;35.66;102059.13;5037809;28;45189;-44
2023/04/16 09:48:38;;;;;;;;;6.75;5.75;;;;;21.08;35.20;102056.50;5037881;28;45252;-37
2023/04/16 09:51:05;;;;;;;;;6.50;6.50;;;;;21.06;35.57;102055.69;5036043;28;45384;-39
2023/04/16 09:53:31;;;;;;;;;5.50;5.50;;;;;21.07;35.38;102057.41;5037810;28;45989;-38
2023/04/16 09:55:57;;;;;;;;;5.25;5.00;;;;;21.07;35.32;102057.41;5037545;28;45502;-39
2023/04/16 09:58:23;;;;;;;;;5.00;5.00;;;;;21.07;35.78;102053.00;5037436;28;45560;-37
2023/04/16 10:00:49;;;;;;;;;6.75;5.00;;;;;21.06;35.49;102053.06;5037300;28;45908;-40
2023/04/16 10:03:14;;;;;;;;;9.25;5.50;;;;;21.05;35.98;102054.84;5037229;28;45437;-37
2023/04/16 10:05:40;;;;;;;;;9.00;6.00;;;;;21.06;35.72;102058.31;5037163;28;45479;-37
2023/04/16 10:08:13;;;;;;;;;5.25;5.25;;;;;21.06;35.67;102055.69;5036101;28;45583;-38
2023/04/16 10:10:39;;;;;;;;;5.25;4.50;;;;;21.06;35.74;102056.53;5036031;28;46332;-37
2023/04/16 10:13:05;;;;;;;;;10.75;6.00;;;;;21.06;35.90;102053.06;5035737;28;45307;-37
2023/04/16 10:15:31;;;;;;;;;5.00;5.00;;;;;21.05;35.55;102054.84;5037414;28;45375;-44
2023/04/16 10:17:57;;;;;;;;;6.50;6.00;;;;;21.04;35.52;102053.13;5035842;28;45638;-43
2023/04/16 10:20:23;;;;;;;;;7.00;6.00;;;;;21.05;35.62;102059.25;5036937;28;46656;-37
2023/04/16 10:22:48;;;;;;;;;6.00;5.00;;;;;21.05;35.32;102059.25;5036844;28;45232;-39
2023/04/16 10:25:15;;;;;;;;;5.00;5.00;;;;;21.04;35.81;102058.41;5037049;28;45221;-37
2023/04/16 10:27:41;;;;;;;;;6.75;5.75;;;;;21.04;35.50;102063.66;5035920;28;45174;-37
2023/04/16 10:30:07;;;;;;;;;8.00;6.25;;;;;21.05;35.68;102056.59;5036652;28;46519;-37
2023/04/16 10:32:34;;;;;;;;;8.25;4.00;;;;;21.05;35.46;102056.59;5037006;28;45376;-38
2023/04/16 10:34:59;;;;;;;;;5.50;3.75;;;;;21.04;35.62;102061.03;5036800;28;45350;-36
2023/04/16 10:37:31;;;;;;;;;5.00;5.00;;;;;21.05;35.93;102060.13;5037007;28;45343;-37
2023/04/16 10:39:58;;;;;;;;;5.50;5.50;;;;;21.04;35.50;102052.25;5036406;28;46982;-39
2023/04/16 10:42:24;;;;;;;;;5.00;4.00;;;;;21.05;35.78;102054.84;5036451;28;46035;-37
2023/04/16 10:44:50;;;;;;;;;5.00;5.00;;;;;21.05;35.47;102053.97;5036618;28;45429;-38
2023/04/16 10:47:15;;;;;;;;;5.00;4.00;;;;;21.05;35.35;102052.22;5036774;28;45614;-37
2023/04/16 10:49:42;;;;;;;;;7.25;5.00;;;;;21.05;35.81;102059.25;5036271;28;52121;-38
2023/04/16 10:52:12;;;;;;;;;5.50;5.00;;;;;21.04;35.55;102055.75;5036569;28;45909;-41
2023/04/16 10:54:39;;;;;;;;;5.25;4.75;;;;;21.04;35.23;102060.16;5036425;28;45269;-37
2023/04/16 10:57:13;;;;;;;;;5.00;4.00;;;;;21.03;35.69;102050.53;5036852;28;45628;-44
2023/04/16 10:59:41;;;;;;;;;4.50;3.50;;;;;21.04;35.78;102046.97;5036384;28;46376;-39
2023/04/16 11:02:15;;;;;;;;;5.75;4.50;;;;;21.02;35.53;102054.97;5035439;28;45461;-38
2023/04/16 11:04:45;;;;;;;;;4.75;3.75;;;;;21.01;35.49;102054.06;5036576;28;45366;-40
2023/04/16 11:07:12;;;;;;;;;6.25;5.25;;;;;21.01;35.67;102048.81;5036751;28;45600;-41
2023/04/16 11:09:42;;;;;;;;;5.50;4.00;;;;;21.01;35.51;102047.97;5035073;28;48153;-37
2023/04/16 11:12:11;;;;;;;;;8.50;6.00;;;;;21.03;35.67;102045.25;5036623;28;45331;-37
2023/04/16 11:14:37;;;;;;;;;3.00;3.00;;;;;21.00;35.64;102049.72;5036650;28;45343;-38
2023/04/16 11:17:02;;;;;;;;;8.00;4.75;;;;;21.00;35.74;102038.34;5036545;28;45571;-37
2023/04/16 11:19:28;;;;;;;;;7.50;5.00;;;;;21.00;35.36;102047.09;5035702;28;54485;-37